Impacts TAF Board
For situational awareness. Not to be used for flight planning purposes.
IDs:

KJAN - Jackson/Evers Intl, MS, US

Issued at 0738 UTC 16 Oct 2018
Updated at 0815 UTC 16 Oct 2018
Potential Impact None Slight Moderate High
Time0754Z 16/09Z 16/10Z 16/11Z 16/12Z 16/13Z 16/14Z 16/15Z 16/16Z 16/17Z 16/18Z 16/19Z 16/20Z 16/21Z>>
Type OBS PRVL PRVL PRVL PRVL PRVL PRVL PRVL PRVL PRVL PRVL PRVL PRVL PRVL
VIS 10 >6 >6 >6 >6 >6 >6 >6 >6 >6 >6 >6 >6 >6
CIG 3 4 4 4 4 4 12 12 12 12 12 15 15 15
Cover OVC BKN BKN BKN BKN BKN BKN BKN BKN BKN BKN BKN BKN BKN
FltCat LIFR LIFR LIFR LIFR LIFR LIFR MVFR MVFR MVFR MVFR MVFR MVFR MVFR MVFR
WX -- VCSH VCSH VCSH VCSH VCSH VCSH VCSH VCSH VCSH VCSH VCTS VCTS VCTS
WDir 340 360 360 360 360 360 20 20 20 20 20 20 20 20
WSpd 8 9 9 9 9 9 8 8 8 8 8 6 6 6
WGst -- -- -- -- -- -- -- -- -- -- -- -- -- --
Raw TAF
KJAN 160738Z 1608/1706 36009KT P6SM VCSH BKN004
  FM161400 02008KT P6SM VCSH BKN012
  FM161900 02006KT P6SM VCTS BKN015CB
  FM170000 01006KT P6SM VCSH BKN007


Raw METAR
KJAN 160754Z AUTO 34008KT 10SM OVC003 15/14 A3015 RMK AO2 SLP206 T01500139
KJAN 160713Z AUTO 35008KT 10SM OVC004 15/14 A3015 RMK AO2 T01500139
KJAN 160654Z AUTO 35009KT 10SM OVC006 15/14 A3015 RMK AO2 RAB15E28 SLP205 P0000 T01500139
KJAN 160635Z AUTO 35010KT 10SM OVC007 16/14 A3015 RMK AO2 RAB15E28 P0000 T01560139
KJAN 160611Z AUTO 34009KT 10SM OVC009 16/14 A3014 RMK AO2 T01610139
KJAN 160554Z AUTO 35008KT 10SM OVC010 16/14 A3014 RMK AO2 SLP203 T01610139 10222 20161 403060161 58002

METAR Board
Radar Display
Forecast Discussion
For situational awareness. Not to be used for flight planning purposes.